Time;durP1;ratioP1;P1;durP2;ratioP2;P2;SDS_P1;SDS_P2;PMS_P1;PMS_P2;Temp;Humidity;BMP_temperature;BMP_pressure;BME280_temperature;BME280_humidity;BME280_pressure;Samples;Min_cycle;Max_cycle;Signal;HPM_P1;HPM_P2
2020/12/16 00:01:12;;;;;;;2.58;1.65;;;;;;;;;;5087780;28;20035;-48
2020/12/16 00:03:38;;;;;;;2.47;1.60;;;;;;;;;;5086180;28;20069;-50
2020/12/16 00:06:04;;;;;;;3.67;1.58;;;;;;;;;;5087862;28;20028;-52
2020/12/16 00:08:30;;;;;;;2.05;1.48;;;;;;;;;;5087894;28;20079;-50
2020/12/16 00:10:56;;;;;;;1.75;1.38;;;;;;;;;;5088196;28;20514;-48
2020/12/16 00:13:22;;;;;;;2.35;1.58;;;;;;;;;;5088156;28;20028;-48
2020/12/16 00:15:49;;;;;;;1.95;1.30;;;;;;;;;;5086623;28;20505;-50
2020/12/16 00:18:15;;;;;;;1.15;0.88;;;;;;;;;;5086801;28;20028;-48
2020/12/16 00:20:41;;;;;;;1.33;1.00;;;;;;;;;;5087385;28;20021;-49
2020/12/16 00:23:07;;;;;;;1.83;0.90;;;;;;;;;;5087118;28;20490;-47
2020/12/16 00:25:33;;;;;;;1.27;0.70;;;;;;;;;;5086736;28;20482;-49
2020/12/16 00:27:59;;;;;;;0.88;0.70;;;;;;;;;;5087233;28;20055;-50
2020/12/16 00:30:25;;;;;;;0.50;0.50;;;;;;;;;;5068782;28;20032;-48
2020/12/16 00:32:51;;;;;;;0.52;0.43;;;;;;;;;;5067296;28;20025;-49
2020/12/16 00:35:18;;;;;;;0.50;0.43;;;;;;;;;;5078459;28;20101;-48
2020/12/16 00:37:44;;;;;;;0.50;0.50;;;;;;;;;;5085825;28;20036;-47
2020/12/16 00:40:11;;;;;;;0.63;0.40;;;;;;;;;;5070984;28;20089;-48
2020/12/16 00:42:37;;;;;;;0.40;0.30;;;;;;;;;;5065498;28;20035;-49
2020/12/16 00:45:04;;;;;;;0.30;0.30;;;;;;;;;;5065233;28;20024;-49
2020/12/16 00:47:32;;;;;;;0.40;0.40;;;;;;;;;;5065338;28;20028;-48
2020/12/16 00:49:59;;;;;;;0.38;0.32;;;;;;;;;;5065164;28;20024;-48
2020/12/16 00:52:27;;;;;;;0.52;0.40;;;;;;;;;;5065586;28;20052;-49
2020/12/16 00:54:53;;;;;;;0.73;0.50;;;;;;;;;;5083586;28;20394;-48
2020/12/16 00:57:19;;;;;;;0.47;0.40;;;;;;;;;;5084927;28;20024;-48
2020/12/16 00:59:45;;;;;;;0.50;0.50;;;;;;;;;;5084544;28;20166;-50
2020/12/16 01:02:11;;;;;;;0.60;0.50;;;;;;;;;;5085199;28;20042;-49
2020/12/16 01:04:37;;;;;;;0.50;0.50;;;;;;;;;;5085215;28;20095;-51
2020/12/16 01:07:03;;;;;;;0.95;0.70;;;;;;;;;;5066798;28;20491;-48
2020/12/16 01:09:29;;;;;;;0.98;0.50;;;;;;;;;;5063635;28;20032;-49
2020/12/16 01:11:56;;;;;;;0.50;0.50;;;;;;;;;;5065433;28;20435;-47
2020/12/16 01:14:22;;;;;;;0.40;0.40;;;;;;;;;;5065531;28;20025;-47
2020/12/16 01:16:49;;;;;;;0.50;0.50;;;;;;;;;;5064868;28;20028;-51
2020/12/16 01:19:16;;;;;;;1.00;0.80;;;;;;;;;;5064613;28;20027;-48
2020/12/16 01:21:43;;;;;;;0.70;0.60;;;;;;;;;;5064900;28;20024;-49
2020/12/16 01:24:09;;;;;;;0.80;0.52;;;;;;;;;;5064390;28;20028;-51
2020/12/16 01:26:46;;;;;;;0.95;0.75;;;;;;;;;;5064434;28;20104;-51
2020/12/16 01:29:14;;;;;;;0.70;0.70;;;;;;;;;;5064550;28;20542;-51
2020/12/16 01:31:41;;;;;;;1.05;0.60;;;;;;;;;;5064858;28;20028;-52
2020/12/16 01:34:07;;;;;;;0.95;0.85;;;;;;;;;;5064166;28;20024;-52
2020/12/16 01:36:36;;;;;;;1.35;0.75;;;;;;;;;;5064645;28;20438;-51
2020/12/16 01:39:03;;;;;;;1.27;0.90;;;;;;;;;;5064286;28;20020;-50
2020/12/16 01:41:29;;;;;;;0.90;0.77;;;;;;;;;;5064599;28;20418;-51
2020/12/16 01:43:55;;;;;;;1.60;0.73;;;;;;;;;;5064673;28;20028;-51
2020/12/16 01:46:23;;;;;;;0.85;0.60;;;;;;;;;;5081509;28;20032;-50
2020/12/16 01:48:50;;;;;;;1.05;0.73;;;;;;;;;;5084611;28;20402;-50
2020/12/16 01:51:20;;;;;;;1.42;0.80;;;;;;;;;;5083661;28;20024;-48
2020/12/16 01:53:47;;;;;;;0.95;0.73;;;;;;;;;;5076041;28;20112;-50
2020/12/16 01:56:13;;;;;;;0.85;0.63;;;;;;;;;;5065057;28;20532;-48
2020/12/16 01:58:41;;;;;;;0.60;0.50;;;;;;;;;;5065514;28;20036;-48
2020/12/16 02:01:07;;;;;;;0.95;0.73;;;;;;;;;;5074076;28;20042;-49
2020/12/16 02:03:34;;;;;;;0.75;0.57;;;;;;;;;;5084301;28;20024;-49
2020/12/16 02:06:03;;;;;;;1.65;0.80;;;;;;;;;;5084676;28;20032;-48
2020/12/16 02:08:30;;;;;;;1.50;1.20;;;;;;;;;;5082672;28;20047;-52
2020/12/16 02:10:57;;;;;;;2.28;1.80;;;;;;;;;;5064006;28;20567;-52
2020/12/16 02:13:24;;;;;;;1.92;1.42;;;;;;;;;;5064217;28;20017;-49
2020/12/16 02:15:52;;;;;;;1.38;1.10;;;;;;;;;;5063494;28;20035;-51
2020/12/16 02:18:18;;;;;;;1.13;1.00;;;;;;;;;;5062711;28;20444;-51
2020/12/16 02:20:44;;;;;;;1.00;0.70;;;;;;;;;;5064187;28;20036;-50
2020/12/16 02:23:17;;;;;;;0.73;0.70;;;;;;;;;;5064496;28;20101;-48
2020/12/16 02:25:43;;;;;;;0.50;0.50;;;;;;;;;;5063666;28;20509;-49
2020/12/16 02:28:09;;;;;;;0.60;0.60;;;;;;;;;;5068252;28;20036;-51
2020/12/16 02:30:35;;;;;;;0.40;0.40;;;;;;;;;;5085011;28;20024;-50
2020/12/16 02:33:01;;;;;;;0.40;0.40;;;;;;;;;;5066999;28;20383;-52
2020/12/16 02:35:27;;;;;;;0.70;0.55;;;;;;;;;;5064179;28;20036;-50
2020/12/16 02:37:53;;;;;;;0.60;0.50;;;;;;;;;;5064806;28;20039;-48
2020/12/16 02:40:19;;;;;;;0.50;0.47;;;;;;;;;;5068036;28;20139;-48
2020/12/16 02:42:45;;;;;;;1.25;0.80;;;;;;;;;;5067865;28;20107;-48
2020/12/16 02:45:11;;;;;;;0.70;0.63;;;;;;;;;;5067528;28;20054;-48
2020/12/16 02:47:37;;;;;;;1.52;0.93;;;;;;;;;;5067982;28;20020;-48
2020/12/16 02:50:05;;;;;;;0.80;0.70;;;;;;;;;;5067345;28;20024;-48
2020/12/16 02:52:32;;;;;;;0.68;0.68;;;;;;;;;;5066815;28;20070;-48
2020/12/16 02:54:58;;;;;;;1.95;1.00;;;;;;;;;;5067189;28;20086;-48
2020/12/16 02:57:24;;;;;;;1.25;0.80;;;;;;;;;;5066715;28;20032;-49
2020/12/16 02:59:57;;;;;;;0.50;0.50;;;;;;;;;;5067829;28;20487;-48
2020/12/16 03:02:23;;;;;;;0.90;0.80;;;;;;;;;;5067444;28;20027;-48
2020/12/16 03:04:49;;;;;;;0.73;0.73;;;;;;;;;;5067289;28;20032;-48
2020/12/16 03:07:15;;;;;;;1.23;0.77;;;;;;;;;;5067086;28;20021;-48
2020/12/16 03:09:41;;;;;;;0.52;0.52;;;;;;;;;;5067209;28;20166;-48
2020/12/16 03:12:07;;;;;;;0.73;0.50;;;;;;;;;;5067879;28;20372;-48
2020/12/16 03:14:33;;;;;;;0.95;0.90;;;;;;;;;;5077656;28;20028;-49
2020/12/16 03:16:59;;;;;;;1.00;0.70;;;;;;;;;;5087171;28;20028;-48
2020/12/16 03:19:25;;;;;;;0.70;0.63;;;;;;;;;;5087666;28;20541;-48
2020/12/16 03:21:52;;;;;;;0.70;0.70;;;;;;;;;;5087255;28;20034;-50
2020/12/16 03:24:18;;;;;;;0.80;0.80;;;;;;;;;;5086484;28;20032;-51
2020/12/16 03:26:44;;;;;;;1.13;1.02;;;;;;;;;;5066743;28;20036;-48
2020/12/16 03:29:10;;;;;;;1.00;0.90;;;;;;;;;;5066844;28;20033;-49
2020/12/16 03:31:36;;;;;;;0.85;0.75;;;;;;;;;;5067380;28;20025;-48
2020/12/16 03:34:02;;;;;;;1.15;1.05;;;;;;;;;;5066476;28;20013;-47
2020/12/16 03:36:28;;;;;;;1.45;0.98;;;;;;;;;;5066852;28;20032;-49
2020/12/16 03:38:55;;;;;;;1.55;1.13;;;;;;;;;;5066721;28;20032;-48
2020/12/16 03:41:21;;;;;;;1.20;0.88;;;;;;;;;;5066878;28;20035;-49
2020/12/16 03:43:48;;;;;;;1.73;0.88;;;;;;;;;;5066808;28;20025;-49
2020/12/16 03:46:14;;;;;;;1.13;1.00;;;;;;;;;;5075710;28;20020;-48
2020/12/16 03:48:40;;;;;;;1.38;1.13;;;;;;;;;;5070664;28;20041;-48
2020/12/16 03:51:07;;;;;;;1.52;1.40;;;;;;;;;;5066470;28;20021;-48
2020/12/16 03:53:34;;;;;;;1.42;1.08;;;;;;;;;;5066433;28;20391;-48
2020/12/16 03:56:13;;;;;;;1.38;1.20;;;;;;;;;;5066299;28;20714;-48
2020/12/16 03:58:43;;;;;;;1.95;1.55;;;;;;;;;;5067040;28;20039;-49
2020/12/16 04:01:10;;;;;;;1.75;1.40;;;;;;;;;;5066540;28;20040;-48
2020/12/16 04:03:36;;;;;;;2.60;1.98;;;;;;;;;;5066893;28;20036;-47
2020/12/16 04:06:05;;;;;;;1.92;1.55;;;;;;;;;;5066064;28;20509;-47
2020/12/16 04:08:31;;;;;;;1.95;1.73;;;;;;;;;;5065977;28;20035;-48
2020/12/16 04:10:58;;;;;;;2.05;1.73;;;;;;;;;;5066072;28;20440;-49
2020/12/16 04:13:24;;;;;;;1.67;1.50;;;;;;;;;;5066311;28;20050;-49
2020/12/16 04:15:50;;;;;;;1.88;1.58;;;;;;;;;;5065541;28;20507;-48
2020/12/16 04:18:16;;;;;;;2.88;2.10;;;;;;;;;;5065726;28;20404;-50
2020/12/16 04:20:42;;;;;;;1.80;1.50;;;;;;;;;;5065101;28;20104;-48
2020/12/16 04:23:08;;;;;;;2.00;1.80;;;;;;;;;;5066292;28;20056;-51
2020/12/16 04:25:35;;;;;;;2.20;1.60;;;;;;;;;;5066185;28;20031;-53
2020/12/16 04:28:01;;;;;;;2.03;1.67;;;;;;;;;;5065613;28;20038;-51
2020/12/16 04:30:28;;;;;;;2.10;1.90;;;;;;;;;;5066162;28;20017;-49
2020/12/16 04:32:59;;;;;;;1.65;1.40;;;;;;;;;;5065075;28;20063;-50
2020/12/16 04:35:26;;;;;;;1.38;1.27;;;;;;;;;;5065835;28;20232;-49
2020/12/16 04:37:52;;;;;;;1.67;1.30;;;;;;;;;;5065668;28;20311;-48
2020/12/16 04:40:18;;;;;;;1.65;1.38;;;;;;;;;;5065798;28;20100;-48
2020/12/16 04:42:44;;;;;;;1.67;1.50;;;;;;;;;;5065436;28;20539;-48
2020/12/16 04:45:11;;;;;;;1.90;1.77;;;;;;;;;;5065631;28;20107;-50
2020/12/16 04:47:38;;;;;;;2.42;2.03;;;;;;;;;;5065660;28;20043;-47
2020/12/16 04:50:05;;;;;;;3.30;2.60;;;;;;;;;;5065151;28;20021;-48
2020/12/16 04:52:31;;;;;;;3.05;2.55;;;;;;;;;;5069594;28;20046;-48
2020/12/16 04:54:57;;;;;;;3.95;2.95;;;;;;;;;;5070313;28;20031;-48
2020/12/16 04:57:23;;;;;;;2.88;2.50;;;;;;;;;;5085460;28;20020;-49
2020/12/16 04:59:54;;;;;;;3.67;2.85;;;;;;;;;;5085567;28;20855;-48
2020/12/16 05:02:20;;;;;;;2.47;2.28;;;;;;;;;;5084476;28;20036;-48
2020/12/16 05:04:46;;;;;;;3.17;2.40;;;;;;;;;;5085153;28;20402;-48
2020/12/16 05:07:30;;;;;;;4.45;2.47;;;;;;;;;;5085227;28;20020;-47
2020/12/16 05:09:56;;;;;;;;;;;;;;;;;;5085524;28;20027;-47
2020/12/16 05:12:22;;;;;;;4.00;2.13;;;;;;;;;;5085126;28;19904;-48
2020/12/16 05:14:49;;;;;;;2.60;2.30;;;;;;;;;;5075235;28;20483;-47
2020/12/16 05:17:15;;;;;;;2.72;2.33;;;;;;;;;;5063348;28;20606;-48
2020/12/16 05:19:46;;;;;;;3.50;2.50;;;;;;;;;;5064797;28;20111;-48
2020/12/16 05:22:15;;;;;;;3.08;2.58;;;;;;;;;;5064582;28;20553;-47
2020/12/16 05:24:42;;;;;;;3.55;2.78;;;;;;;;;;5064542;28;20040;-49
2020/12/16 05:27:09;;;;;;;3.67;2.75;;;;;;;;;;5065429;28;20021;-49
2020/12/16 05:29:37;;;;;;;3.17;2.75;;;;;;;;;;5065006;28;20639;-50
2020/12/16 05:32:23;;;;;;;3.50;2.30;;;;;;;;;;5062699;28;20495;-48
2020/12/16 05:34:49;;;;;;;4.65;2.50;;;;;;;;;;5064661;28;20020;-48
2020/12/16 05:37:29;;;;;;;3.58;2.72;;;;;;;;;;5064030;28;20297;-48
2020/12/16 05:40:03;;;;;;;3.55;2.63;;;;;;;;;;5064581;28;20032;-48
2020/12/16 05:42:29;;;;;;;2.38;2.00;;;;;;;;;;5065096;28;20027;-48
2020/12/16 05:44:57;;;;;;;3.30;2.50;;;;;;;;;;5071380;28;20055;-49
2020/12/16 05:47:23;;;;;;;4.85;2.42;;;;;;;;;;5084803;28;20477;-48
2020/12/16 05:49:49;;;;;;;2.97;2.20;;;;;;;;;;5084709;28;20452;-48
2020/12/16 05:52:17;;;;;;;2.25;1.73;;;;;;;;;;5084032;28;20024;-48
2020/12/16 05:54:47;;;;;;;4.28;1.83;;;;;;;;;;5084495;28;20364;-50
2020/12/16 05:57:17;;;;;;;2.00;1.48;;;;;;;;;;5084387;28;20031;-52
2020/12/16 06:00:04;;;;;;;2.20;1.88;;;;;;;;;;5077847;28;20024;-48
2020/12/16 06:02:38;;;;;;;2.80;2.00;;;;;;;;;;5064431;28;20030;-50
2020/12/16 06:05:08;;;;;;;2.90;1.90;;;;;;;;;;5064545;28;20024;-52
2020/12/16 06:07:37;;;;;;;2.72;1.90;;;;;;;;;;5064284;28;20388;-49
2020/12/16 06:10:03;;;;;;;2.58;1.70;;;;;;;;;;5064144;28;20490;-50
2020/12/16 06:12:29;;;;;;;2.63;1.88;;;;;;;;;;5064552;28;20510;-49
2020/12/16 06:15:04;;;;;;;2.20;1.70;;;;;;;;;;5067767;28;20039;-50
2020/12/16 06:17:30;;;;;;;;;;;;;;;;;;5068809;28;20067;-49
2020/12/16 06:20:00;;;;;;;2.97;2.05;;;;;;;;;;5067904;28;19973;-48
2020/12/16 06:22:32;;;;;;;1.92;1.55;;;;;;;;;;5068607;28;20024;-51
2020/12/16 06:24:58;;;;;;;2.75;2.20;;;;;;;;;;5067621;28;20031;-49
2020/12/16 06:27:27;;;;;;;3.70;2.78;;;;;;;;;;5068011;28;20475;-48
2020/12/16 06:29:57;;;;;;;3.85;2.72;;;;;;;;;;5067654;28;20052;-48
2020/12/16 06:32:31;;;;;;;4.45;3.28;;;;;;;;;;5068206;28;20407;-48
2020/12/16 06:34:59;;;;;;;3.83;2.67;;;;;;;;;;5066905;28;20106;-47
2020/12/16 06:37:25;;;;;;;3.00;2.30;;;;;;;;;;5067943;28;20028;-50
2020/12/16 06:39:51;;;;;;;3.00;2.42;;;;;;;;;;5067936;28;20283;-49
2020/12/16 06:42:32;;;;;;;2.97;2.38;;;;;;;;;;5067635;28;20024;-48
2020/12/16 06:45:11;;;;;;;2.42;1.90;;;;;;;;;;5084205;28;20042;-49
2020/12/16 06:47:37;;;;;;;2.45;1.88;;;;;;;;;;5088704;28;20050;-47
2020/12/16 06:50:22;;;;;;;1.77;1.58;;;;;;;;;;5087799;28;20027;-48
2020/12/16 06:52:48;;;;;;;2.25;2.00;;;;;;;;;;5087431;28;20017;-48
2020/12/16 06:55:15;;;;;;;2.20;1.83;;;;;;;;;;5087841;28;20031;-48
2020/12/16 06:57:48;;;;;;;2.10;1.90;;;;;;;;;;5087634;28;20032;-48
2020/12/16 07:00:22;;;;;;;2.70;2.17;;;;;;;;;;5068515;28;20478;-48
2020/12/16 07:02:48;;;;;;;2.13;1.58;;;;;;;;;;5069596;28;20082;-49
2020/12/16 07:05:33;;;;;;;1.73;1.38;;;;;;;;;;5068557;28;20032;-48
2020/12/16 07:07:59;;;;;;;2.67;1.73;;;;;;;;;;5068673;28;20288;-49
2020/12/16 07:10:34;;;;;;;3.40;1.77;;;;;;;;;;5071886;28;20494;-48
2020/12/16 07:13:19;;;;;;;2.65;2.00;;;;;;;;;;5067416;28;20554;-50
2020/12/16 07:15:47;;;;;;;3.15;1.90;;;;;;;;;;5070907;28;20133;-48
2020/12/16 07:18:20;;;;;;;2.15;1.67;;;;;;;;;;5078640;28;20093;-49
2020/12/16 07:20:46;;;;;;;2.70;2.00;;;;;;;;;;5068938;28;20174;-49
2020/12/16 07:23:14;;;;;;;3.15;2.33;;;;;;;;;;5069552;28;20061;-48
2020/12/16 07:25:42;;;;;;;2.33;1.95;;;;;;;;;;5077442;28;20030;-49
2020/12/16 07:28:10;;;;;;;2.75;2.28;;;;;;;;;;5088934;28;20035;-48
2020/12/16 07:30:52;;;;;;;2.88;2.20;;;;;;;;;;5073201;28;20108;-50
2020/12/16 07:33:18;;;;;;;3.03;2.30;;;;;;;;;;5068362;28;20052;-50
2020/12/16 07:35:47;;;;;;;2.25;2.05;;;;;;;;;;5068537;28;20040;-52
2020/12/16 07:38:15;;;;;;;2.00;1.60;;;;;;;;;;5068299;28;20036;-51
2020/12/16 07:40:42;;;;;;;2.97;2.10;;;;;;;;;;5067780;28;20032;-49
2020/12/16 07:43:09;;;;;;;2.80;1.80;;;;;;;;;;5086903;28;20028;-51
2020/12/16 07:45:35;;;;;;;2.10;1.70;;;;;;;;;;5085755;28;20048;-48
2020/12/16 07:48:02;;;;;;;2.40;1.80;;;;;;;;;;5087941;28;20028;-48
2020/12/16 07:50:28;;;;;;;2.50;2.08;;;;;;;;;;5088067;28;20367;-47
2020/12/16 07:52:54;;;;;;;2.13;1.85;;;;;;;;;;5087363;28;20031;-47
2020/12/16 07:55:24;;;;;;;2.33;1.95;;;;;;;;;;5087272;28;20024;-51
2020/12/16 07:57:50;;;;;;;3.30;2.60;;;;;;;;;;5088213;28;20031;-52
2020/12/16 08:00:22;;;;;;;3.30;2.40;;;;;;;;;;5086169;28;20052;-50
2020/12/16 08:02:52;;;;;;;3.50;2.70;;;;;;;;;;5087866;28;20028;-52
2020/12/16 08:05:18;;;;;;;3.65;2.38;;;;;;;;;;5070783;28;20103;-50
2020/12/16 08:07:44;;;;;;;4.00;2.65;;;;;;;;;;5072130;28;20283;-52
2020/12/16 08:10:10;;;;;;;3.78;2.42;;;;;;;;;;5083826;28;20517;-51
2020/12/16 08:12:41;;;;;;;2.78;2.55;;;;;;;;;;5071833;28;20111;-47
2020/12/16 08:15:07;;;;;;;4.57;3.25;;;;;;;;;;5068667;28;20025;-48
2020/12/16 08:17:40;;;;;;;2.50;2.30;;;;;;;;;;5075035;28;20085;-47
2020/12/16 08:20:13;;;;;;;3.57;2.60;;;;;;;;;;5087125;28;20663;-49
2020/12/16 08:22:40;;;;;;;4.17;2.57;;;;;;;;;;5080054;28;20529;-47
2020/12/16 08:25:10;;;;;;;2.53;1.95;;;;;;;;;;5067268;28;20060;-47
2020/12/16 08:27:37;;;;;;;1.90;1.67;;;;;;;;;;5067283;28;20062;-47
2020/12/16 08:30:04;;;;;;;2.67;2.22;;;;;;;;;;5067040;28;20043;-48
2020/12/16 08:32:31;;;;;;;2.97;2.38;;;;;;;;;;5067780;28;20029;-48
2020/12/16 08:34:59;;;;;;;3.67;2.92;;;;;;;;;;5078863;28;20554;-48
2020/12/16 08:37:25;;;;;;;4.28;3.53;;;;;;;;;;5077705;28;20119;-49
2020/12/16 08:39:52;;;;;;;4.75;3.28;;;;;;;;;;5070880;28;20036;-50
2020/12/16 08:42:25;;;;;;;5.97;3.60;;;;;;;;;;5087285;28;20028;-48
2020/12/16 08:44:51;;;;;;;6.47;4.15;;;;;;;;;;5079950;28;20127;-47
2020/12/16 08:47:25;;;;;;;5.85;3.63;;;;;;;;;;5066766;28;20040;-49
2020/12/16 08:49:51;;;;;;;6.50;4.50;;;;;;;;;;5076473;28;20161;-48
2020/12/16 08:52:18;;;;;;;5.93;4.00;;;;;;;;;;5068603;28;20495;-49
2020/12/16 08:54:44;;;;;;;5.05;3.83;;;;;;;;;;5066957;28;20029;-48
2020/12/16 08:57:11;;;;;;;4.60;3.60;;;;;;;;;;5066533;28;20027;-48
2020/12/16 08:59:37;;;;;;;4.85;3.38;;;;;;;;;;5076649;28;20024;-49
2020/12/16 09:02:04;;;;;;;5.82;3.97;;;;;;;;;;5087051;28;20035;-47
2020/12/16 09:04:37;;;;;;;5.47;3.83;;;;;;;;;;5086240;28;20039;-48
2020/12/16 09:07:10;;;;;;;5.07;3.63;;;;;;;;;;5066182;28;20039;-51
2020/12/16 09:09:38;;;;;;;5.60;3.93;;;;;;;;;;5065962;28;20478;-48
2020/12/16 09:12:10;;;;;;;5.43;3.72;;;;;;;;;;5066114;28;20266;-48
2020/12/16 09:14:36;;;;;;;4.45;3.35;;;;;;;;;;5074320;28;20020;-47
2020/12/16 09:17:08;;;;;;;4.20;2.92;;;;;;;;;;5067756;28;20422;-49
2020/12/16 09:19:35;;;;;;;5.18;3.53;;;;;;;;;;5066452;28;20375;-47
2020/12/16 09:22:02;;;;;;;4.65;2.95;;;;;;;;;;5065002;28;20079;-48
2020/12/16 09:24:28;;;;;;;3.58;2.65;;;;;;;;;;5066400;28;20024;-48
2020/12/16 09:26:55;;;;;;;3.25;2.60;;;;;;;;;;5067200;28;20051;-47
2020/12/16 09:29:28;;;;;;;3.85;2.22;;;;;;;;;;5068070;28;20035;-48
2020/12/16 09:32:07;;;;;;;2.45;2.00;;;;;;;;;;5066027;28;20031;-48
2020/12/16 09:34:52;;;;;;;3.03;2.42;;;;;;;;;;5073069;28;20023;-48
2020/12/16 09:37:20;;;;;;;2.55;1.98;;;;;;;;;;5074556;28;20028;-47
2020/12/16 09:39:47;;;;;;;1.92;1.73;;;;;;;;;;5066504;28;20154;-50
2020/12/16 09:42:18;;;;;;;2.63;1.90;;;;;;;;;;5071559;28;20162;-47
2020/12/16 09:44:44;;;;;;;3.17;2.13;;;;;;;;;;5064089;28;20032;-50
2020/12/16 09:47:16;;;;;;;2.83;1.80;;;;;;;;;;5077305;28;20512;-48
2020/12/16 09:49:43;;;;;;;2.55;2.00;;;;;;;;;;5078992;28;20024;-47
2020/12/16 09:52:29;;;;;;;2.15;1.70;;;;;;;;;;5084920;28;20137;-48
2020/12/16 09:54:55;;;;;;;3.15;2.20;;;;;;;;;;5068387;28;20028;-48
2020/12/16 09:57:22;;;;;;;2.65;1.80;;;;;;;;;;5065992;28;20462;-47
2020/12/16 09:59:48;;;;;;;2.50;1.83;;;;;;;;;;5066184;28;20035;-48
2020/12/16 10:02:15;;;;;;;3.00;2.13;;;;;;;;;;5065442;28;20039;-48
2020/12/16 10:04:41;;;;;;;2.22;1.75;;;;;;;;;;5065350;28;20028;-48
2020/12/16 10:07:07;;;;;;;2.63;2.00;;;;;;;;;;5065062;28;20037;-48
2020/12/16 10:09:35;;;;;;;2.97;2.20;;;;;;;;;;5078654;28;20102;-46
2020/12/16 10:12:02;;;;;;;2.35;1.70;;;;;;;;;;5085020;28;20036;-47
2020/12/16 10:14:28;;;;;;;2.03;1.42;;;;;;;;;;5085812;28;20144;-48
2020/12/16 10:16:54;;;;;;;1.42;1.30;;;;;;;;;;5069910;28;20032;-48
2020/12/16 10:19:20;;;;;;;2.28;1.75;;;;;;;;;;5065669;28;20028;-48
2020/12/16 10:21:47;;;;;;;2.00;1.80;;;;;;;;;;5080710;28;20040;-47
2020/12/16 10:24:14;;;;;;;2.78;1.98;;;;;;;;;;5085548;28;20028;-47
2020/12/16 10:26:40;;;;;;;2.67;1.77;;;;;;;;;;5074755;28;20021;-50
2020/12/16 10:29:06;;;;;;;1.73;1.48;;;;;;;;;;5084285;28;20028;-47
2020/12/16 10:31:32;;;;;;;1.70;1.58;;;;;;;;;;5081235;28;20095;-46
2020/12/16 10:33:58;;;;;;;1.88;1.45;;;;;;;;;;5065508;28;20020;-47
2020/12/16 10:36:24;;;;;;;1.92;1.40;;;;;;;;;;5066012;28;20037;-48
2020/12/16 10:38:50;;;;;;;2.03;1.60;;;;;;;;;;5065174;28;20846;-48
2020/12/16 10:41:16;;;;;;;2.65;1.40;;;;;;;;;;5065236;28;20748;-46
2020/12/16 10:43:42;;;;;;;2.55;1.65;;;;;;;;;;5065120;28;20094;-48
2020/12/16 10:46:09;;;;;;;1.95;1.45;;;;;;;;;;5063621;28;20028;-46
2020/12/16 10:48:36;;;;;;;1.80;1.50;;;;;;;;;;5063968;28;20550;-47
2020/12/16 10:51:02;;;;;;;2.10;1.40;;;;;;;;;;5063401;28;20056;-48
2020/12/16 10:53:28;;;;;;;1.52;1.00;;;;;;;;;;5062736;28;20032;-47
2020/12/16 10:55:56;;;;;;;2.22;1.10;;;;;;;;;;5063608;28;20046;-48
2020/12/16 10:58:22;;;;;;;1.52;1.10;;;;;;;;;;5063368;28;20090;-47
2020/12/16 11:00:48;;;;;;;1.45;1.20;;;;;;;;;;5067143;28;20028;-51
2020/12/16 11:03:14;;;;;;;1.27;1.17;;;;;;;;;;5067035;28;20033;-48
2020/12/16 11:05:40;;;;;;;2.25;1.23;;;;;;;;;;5067238;28;20032;-48
2020/12/16 11:08:06;;;;;;;1.63;1.10;;;;;;;;;;5067221;28;20033;-46
2020/12/16 11:10:32;;;;;;;2.10;1.00;;;;;;;;;;5067020;28;20111;-47
2020/12/16 11:12:58;;;;;;;2.15;1.25;;;;;;;;;;5067148;28;20059;-49
2020/12/16 11:15:24;;;;;;;2.30;1.10;;;;;;;;;;5067006;28;20039;-48
2020/12/16 11:17:50;;;;;;;2.03;1.10;;;;;;;;;;5067084;28;20036;-47
2020/12/16 11:20:31;;;;;;;1.83;1.23;;;;;;;;;;5033086;28;20135;-48
2020/12/16 11:22:57;;;;;;;2.70;1.10;;;;;;;;;;5066999;28;20029;-51
2020/12/16 11:25:23;;;;;;;1.23;1.00;;;;;;;;;;5066631;28;20394;-47
2020/12/16 11:27:50;;;;;;;4.57;1.25;;;;;;;;;;5065249;28;20521;-51
2020/12/16 11:30:16;;;;;;;0.80;0.80;;;;;;;;;;5066513;28;20035;-47
2020/12/16 11:32:42;;;;;;;2.42;1.20;;;;;;;;;;5066660;28;20029;-50
2020/12/16 11:35:08;;;;;;;3.88;1.48;;;;;;;;;;5065648;28;20020;-46
2020/12/16 11:37:38;;;;;;;2.80;1.10;;;;;;;;;;5066435;28;20047;-46
2020/12/16 11:40:04;;;;;;;2.55;1.23;;;;;;;;;;5067227;28;20025;-49
2020/12/16 11:42:30;;;;;;;1.00;0.90;;;;;;;;;;5085798;28;20024;-51
2020/12/16 11:44:56;;;;;;;1.45;1.00;;;;;;;;;;5086979;28;20367;-47
2020/12/16 11:47:22;;;;;;;2.10;1.00;;;;;;;;;;5086681;28;20081;-46
2020/12/16 11:49:48;;;;;;;2.38;1.00;;;;;;;;;;5086725;28;20091;-47
2020/12/16 11:52:14;;;;;;;0.80;0.80;;;;;;;;;;5084766;28;20553;-48
2020/12/16 11:54:40;;;;;;;2.17;1.10;;;;;;;;;;5086496;28;20112;-46
2020/12/16 11:57:06;;;;;;;0.73;0.70;;;;;;;;;;5086061;28;20541;-48
2020/12/16 11:59:33;;;;;;;1.65;0.82;;;;;;;;;;5086477;28;20032;-50
2020/12/16 12:02:04;;;;;;;1.13;0.82;;;;;;;;;;5086659;28;20024;-49
2020/12/16 12:04:31;;;;;;;8.07;1.40;;;;;;;;;;5086408;28;20115;-48
2020/12/16 12:06:57;;;;;;;1.98;0.98;;;;;;;;;;5086628;28;20020;-46
2020/12/16 12:09:23;;;;;;;3.78;1.35;;;;;;;;;;5086567;28;20020;-46
2020/12/16 12:11:50;;;;;;;2.25;1.00;;;;;;;;;;5083843;28;20039;-46
2020/12/16 12:14:17;;;;;;;1.20;0.85;;;;;;;;;;5085288;28;20024;-48
2020/12/16 12:16:43;;;;;;;3.85;0.77;;;;;;;;;;5085884;28;20035;-46
2020/12/16 12:19:09;;;;;;;3.28;1.00;;;;;;;;;;5085943;28;20035;-46
2020/12/16 12:21:36;;;;;;;2.15;0.80;;;;;;;;;;5085985;28;20031;-47
2020/12/16 12:24:03;;;;;;;2.10;0.82;;;;;;;;;;5085403;28;20089;-50
2020/12/16 12:26:29;;;;;;;2.58;1.00;;;;;;;;;;5085897;28;20035;-50
2020/12/16 12:28:56;;;;;;;1.50;0.90;;;;;;;;;;5086139;28;20453;-50
2020/12/16 12:31:22;;;;;;;2.30;0.93;;;;;;;;;;5085924;28;20278;-48
2020/12/16 12:33:48;;;;;;;0.88;0.70;;;;;;;;;;5085686;28;20024;-46
2020/12/16 12:36:14;;;;;;;1.35;0.93;;;;;;;;;;5085775;28;20486;-48
2020/12/16 12:38:40;;;;;;;2.22;0.90;;;;;;;;;;5085795;28;20074;-47
2020/12/16 12:41:06;;;;;;;1.50;0.70;;;;;;;;;;5085407;28;20028;-46
2020/12/16 12:43:32;;;;;;;2.00;0.90;;;;;;;;;;5085740;28;20055;-48
2020/12/16 12:45:58;;;;;;;2.22;0.95;;;;;;;;;;5085841;28;20020;-48
2020/12/16 12:48:24;;;;;;;1.77;1.17;;;;;;;;;;5086177;28;20548;-49
2020/12/16 12:50:50;;;;;;;1.33;1.00;;;;;;;;;;5085341;28;20098;-48
2020/12/16 12:53:16;;;;;;;2.03;0.95;;;;;;;;;;5083633;28;20455;-48
2020/12/16 12:55:43;;;;;;;1.10;0.90;;;;;;;;;;5085134;28;20103;-48
2020/12/16 12:58:09;;;;;;;1.35;1.02;;;;;;;;;;5085415;28;20027;-45
2020/12/16 13:00:35;;;;;;;1.13;0.82;;;;;;;;;;5085262;28;20028;-48
2020/12/16 13:03:01;;;;;;;1.42;1.08;;;;;;;;;;5085086;28;20402;-47
2020/12/16 13:05:27;;;;;;;1.92;1.10;;;;;;;;;;5085775;28;20366;-48
2020/12/16 13:07:53;;;;;;;1.02;0.88;;;;;;;;;;5084796;28;20216;-45
2020/12/16 13:10:19;;;;;;;2.05;0.77;;;;;;;;;;5085255;28;20032;-45
2020/12/16 13:12:45;;;;;;;1.50;0.90;;;;;;;;;;5085216;28;20493;-49
2020/12/16 13:15:11;;;;;;;1.00;0.60;;;;;;;;;;5084864;28;20050;-47
2020/12/16 13:17:37;;;;;;;0.93;0.70;;;;;;;;;;5084926;28;20093;-48
2020/12/16 13:20:04;;;;;;;2.13;0.82;;;;;;;;;;5084676;28;20055;-49
2020/12/16 13:22:30;;;;;;;1.02;0.80;;;;;;;;;;5084485;28;20071;-46
2020/12/16 13:24:57;;;;;;;1.33;0.82;;;;;;;;;;5085144;28;20025;-46
2020/12/16 13:27:23;;;;;;;1.02;0.80;;;;;;;;;;5084617;28;20063;-46
2020/12/16 13:29:50;;;;;;;1.48;0.90;;;;;;;;;;5084933;28;20043;-46
2020/12/16 13:32:16;;;;;;;1.80;0.75;;;;;;;;;;5085055;28;20032;-46
2020/12/16 13:34:44;;;;;;;2.50;1.10;;;;;;;;;;5077858;28;20016;-45
2020/12/16 13:37:11;;;;;;;2.78;1.20;;;;;;;;;;5064706;28;20099;-46
2020/12/16 13:39:37;;;;;;;1.73;0.90;;;;;;;;;;5069751;28;20029;-47
2020/12/16 13:42:03;;;;;;;0.93;0.77;;;;;;;;;;5084321;28;20132;-50
2020/12/16 13:44:29;;;;;;;1.30;0.90;;;;;;;;;;5085027;28;20091;-46
2020/12/16 13:46:56;;;;;;;1.85;1.00;;;;;;;;;;5084250;28;20023;-46
2020/12/16 13:49:22;;;;;;;2.28;1.42;;;;;;;;;;5084176;28;20080;-47
2020/12/16 13:51:48;;;;;;;2.05;1.55;;;;;;;;;;5083053;28;20024;-46
2020/12/16 13:54:15;;;;;;;4.35;1.35;;;;;;;;;;5083897;28;20414;-47
2020/12/16 13:56:41;;;;;;;2.00;1.10;;;;;;;;;;5084551;28;20460;-46
2020/12/16 13:59:07;;;;;;;1.80;1.05;;;;;;;;;;5084025;28;20445;-45
2020/12/16 14:01:33;;;;;;;3.30;1.17;;;;;;;;;;5084408;28;20111;-48
2020/12/16 14:03:59;;;;;;;2.08;1.13;;;;;;;;;;5084770;28;20388;-47
2020/12/16 14:06:25;;;;;;;2.67;1.10;;;;;;;;;;5083114;28;20027;-47
2020/12/16 14:08:52;;;;;;;3.58;1.50;;;;;;;;;;5084220;28;20711;-46
2020/12/16 14:11:20;;;;;;;3.15;1.42;;;;;;;;;;5082565;28;20028;-46
2020/12/16 14:13:51;;;;;;;3.00;1.30;;;;;;;;;;5083972;28;20020;-48
2020/12/16 14:16:17;;;;;;;1.33;1.20;;;;;;;;;;5084366;28;20031;-46
2020/12/16 14:18:44;;;;;;;3.83;1.50;;;;;;;;;;5083456;28;20028;-49
2020/12/16 14:21:11;;;;;;;4.95;1.45;;;;;;;;;;5070512;28;20398;-46
2020/12/16 14:23:38;;;;;;;2.20;1.45;;;;;;;;;;5065496;28;20027;-49
2020/12/16 14:26:05;;;;;;;2.30;1.20;;;;;;;;;;5068643;28;20032;-50
2020/12/16 14:28:32;;;;;;;1.13;1.00;;;;;;;;;;5065056;28;20029;-47
2020/12/16 14:30:58;;;;;;;2.08;1.17;;;;;;;;;;5085376;28;20482;-50
2020/12/16 14:33:24;;;;;;;3.20;1.30;;;;;;;;;;5077848;28;20021;-49
2020/12/16 14:35:50;;;;;;;4.00;1.45;;;;;;;;;;5069225;28;20474;-49
2020/12/16 14:38:16;;;;;;;3.00;1.67;;;;;;;;;;5068774;28;20051;-46
2020/12/16 14:40:47;;;;;;;2.20;1.40;;;;;;;;;;5069044;28;20079;-50
2020/12/16 14:43:14;;;;;;;3.05;1.35;;;;;;;;;;5068694;28;20032;-50
2020/12/16 14:45:40;;;;;;;3.25;1.65;;;;;;;;;;5069134;28;20029;-48